sensor_id;sensor_type;location;lat;lon;timestamp;P1;durP1;ratioP1;P2;durP2;ratioP2
20623;SDS011;10471;42.736;23.346;2022-07-25T00:00:10;15.53;;;13.87;;
20623;SDS011;10471;42.736;23.346;2022-07-25T00:02:35;16.13;;;14.43;;
20623;SDS011;10471;42.736;23.346;2022-07-25T00:05:01;17.30;;;14.53;;
20623;SDS011;10471;42.736;23.346;2022-07-25T00:07:27;16.17;;;14.47;;
20623;SDS011;10471;42.736;23.346;2022-07-25T00:09:52;15.30;;;13.77;;
20623;SDS011;10471;42.736;23.346;2022-07-25T00:12:18;15.67;;;14.07;;
20623;SDS011;10471;42.736;23.346;2022-07-25T00:14:44;16.97;;;14.00;;
20623;SDS011;10471;42.736;23.346;2022-07-25T00:17:09;15.97;;;14.13;;
20623;SDS011;10471;42.736;23.346;2022-07-25T00:19:35;16.27;;;14.60;;
20623;SDS011;10471;42.736;23.346;2022-07-25T00:22:00;16.23;;;13.70;;
20623;SDS011;10471;42.736;23.346;2022-07-25T00:24:26;15.80;;;14.10;;
20623;SDS011;10471;42.736;23.346;2022-07-25T00:26:51;16.47;;;14.77;;
20623;SDS011;10471;42.736;23.346;2022-07-25T00:29:17;15.37;;;13.83;;
20623;SDS011;10471;42.736;23.346;2022-07-25T00:31:42;16.03;;;13.90;;
20623;SDS011;10471;42.736;23.346;2022-07-25T00:34:08;16.17;;;14.37;;
20623;SDS011;10471;42.736;23.346;2022-07-25T00:36:33;16.97;;;14.73;;
20623;SDS011;10471;42.736;23.346;2022-07-25T00:38:58;15.53;;;13.93;;
20623;SDS011;10471;42.736;23.346;2022-07-25T00:41:24;15.77;;;13.97;;
20623;SDS011;10471;42.736;23.346;2022-07-25T00:43:49;15.77;;;14.17;;
20623;SDS011;10471;42.736;23.346;2022-07-25T00:46:15;15.33;;;13.73;;
20623;SDS011;10471;42.736;23.346;2022-07-25T00:48:41;16.30;;;14.57;;
20623;SDS011;10471;42.736;23.346;2022-07-25T00:51:07;16.73;;;14.97;;
20623;SDS011;10471;42.736;23.346;2022-07-25T00:53:37;19.53;;;15.37;;
20623;SDS011;10471;42.736;23.346;2022-07-25T00:56:03;17.90;;;15.30;;
20623;SDS011;10471;42.736;23.346;2022-07-25T00:58:29;21.07;;;15.87;;
20623;SDS011;10471;42.736;23.346;2022-07-25T01:00:55;17.17;;;15.37;;
20623;SDS011;10471;42.736;23.346;2022-07-25T01:03:23;17.10;;;14.47;;
20623;SDS011;10471;42.736;23.346;2022-07-25T01:05:48;17.13;;;15.40;;
20623;SDS011;10471;42.736;23.346;2022-07-25T01:08:16;17.43;;;15.17;;
20623;SDS011;10471;42.736;23.346;2022-07-25T01:10:43;16.93;;;15.23;;
20623;SDS011;10471;42.736;23.346;2022-07-25T01:13:09;16.70;;;14.80;;
20623;SDS011;10471;42.736;23.346;2022-07-25T01:15:34;18.53;;;15.67;;
20623;SDS011;10471;42.736;23.346;2022-07-25T01:18:00;19.77;;;15.60;;
20623;SDS011;10471;42.736;23.346;2022-07-25T01:20:26;20.10;;;16.03;;
20623;SDS011;10471;42.736;23.346;2022-07-25T01:22:53;20.57;;;15.47;;
20623;SDS011;10471;42.736;23.346;2022-07-25T01:25:19;19.70;;;15.53;;
20623;SDS011;10471;42.736;23.346;2022-07-25T01:27:45;17.17;;;15.40;;
20623;SDS011;10471;42.736;23.346;2022-07-25T01:30:13;22.47;;;15.67;;
20623;SDS011;10471;42.736;23.346;2022-07-25T01:32:40;17.50;;;15.57;;
20623;SDS011;10471;42.736;23.346;2022-07-25T01:35:07;18.57;;;16.07;;
20623;SDS011;10471;42.736;23.346;2022-07-25T01:37:32;18.17;;;16.27;;
20623;SDS011;10471;42.736;23.346;2022-07-25T01:39:58;18.93;;;16.87;;
20623;SDS011;10471;42.736;23.346;2022-07-25T01:42:24;20.10;;;16.50;;
20623;SDS011;10471;42.736;23.346;2022-07-25T01:44:49;19.53;;;17.07;;
20623;SDS011;10471;42.736;23.346;2022-07-25T01:47:15;21.43;;;16.70;;
20623;SDS011;10471;42.736;23.346;2022-07-25T01:49:43;21.73;;;17.53;;
20623;SDS011;10471;42.736;23.346;2022-07-25T01:52:09;18.83;;;16.97;;
20623;SDS011;10471;42.736;23.346;2022-07-25T01:54:35;20.53;;;17.63;;
20623;SDS011;10471;42.736;23.346;2022-07-25T01:57:01;20.43;;;16.87;;
20623;SDS011;10471;42.736;23.346;2022-07-25T01:59:26;21.87;;;17.20;;
20623;SDS011;10471;42.736;23.346;2022-07-25T02:01:52;26.50;;;19.23;;
20623;SDS011;10471;42.736;23.346;2022-07-25T02:04:17;23.07;;;19.63;;
20623;SDS011;10471;42.736;23.346;2022-07-25T02:06:42;22.37;;;20.03;;
20623;SDS011;10471;42.736;23.346;2022-07-25T02:09:08;24.57;;;20.10;;
20623;SDS011;10471;42.736;23.346;2022-07-25T02:11:34;23.60;;;19.93;;
20623;SDS011;10471;42.736;23.346;2022-07-25T02:14:00;22.97;;;19.87;;
20623;SDS011;10471;42.736;23.346;2022-07-25T02:16:26;26.07;;;20.60;;
20623;SDS011;10471;42.736;23.346;2022-07-25T02:18:51;23.97;;;19.33;;
20623;SDS011;10471;42.736;23.346;2022-07-25T02:21:17;26.43;;;19.90;;
20623;SDS011;10471;42.736;23.346;2022-07-25T02:23:42;23.43;;;19.27;;
20623;SDS011;10471;42.736;23.346;2022-07-25T02:26:09;21.67;;;19.43;;
20623;SDS011;10471;42.736;23.346;2022-07-25T02:28:35;22.00;;;19.60;;
20623;SDS011;10471;42.736;23.346;2022-07-25T02:31:00;24.57;;;19.83;;
20623;SDS011;10471;42.736;23.346;2022-07-25T02:33:26;22.47;;;20.07;;
20623;SDS011;10471;42.736;23.346;2022-07-25T02:35:51;24.00;;;19.53;;
20623;SDS011;10471;42.736;23.346;2022-07-25T02:38:17;23.40;;;20.93;;
20623;SDS011;10471;42.736;23.346;2022-07-25T02:40:45;23.97;;;20.40;;
20623;SDS011;10471;42.736;23.346;2022-07-25T02:43:11;26.57;;;21.17;;
20623;SDS011;10471;42.736;23.346;2022-07-25T02:45:37;26.10;;;21.13;;
20623;SDS011;10471;42.736;23.346;2022-07-25T02:48:03;30.73;;;21.10;;
20623;SDS011;10471;42.736;23.346;2022-07-25T02:50:28;29.07;;;19.13;;
20623;SDS011;10471;42.736;23.346;2022-07-25T02:52:54;24.20;;;19.20;;
20623;SDS011;10471;42.736;23.346;2022-07-25T02:55:19;26.17;;;19.63;;
20623;SDS011;10471;42.736;23.346;2022-07-25T02:57:45;22.50;;;18.27;;
20623;SDS011;10471;42.736;23.346;2022-07-25T03:00:10;21.90;;;19.53;;
20623;SDS011;10471;42.736;23.346;2022-07-25T03:02:36;21.70;;;18.07;;
20623;SDS011;10471;42.736;23.346;2022-07-25T03:05:06;21.40;;;17.70;;
20623;SDS011;10471;42.736;23.346;2022-07-25T03:07:36;20.60;;;17.73;;
20623;SDS011;10471;42.736;23.346;2022-07-25T03:10:05;21.13;;;17.50;;
20623;SDS011;10471;42.736;23.346;2022-07-25T03:12:32;19.97;;;17.67;;
20623;SDS011;10471;42.736;23.346;2022-07-25T03:14:58;23.97;;;17.97;;
20623;SDS011;10471;42.736;23.346;2022-07-25T03:17:25;19.80;;;16.87;;
20623;SDS011;10471;42.736;23.346;2022-07-25T03:19:52;21.57;;;16.77;;
20623;SDS011;10471;42.736;23.346;2022-07-25T03:22:18;20.10;;;16.70;;
20623;SDS011;10471;42.736;23.346;2022-07-25T03:24:43;23.57;;;17.17;;
20623;SDS011;10471;42.736;23.346;2022-07-25T03:27:09;23.40;;;17.20;;
20623;SDS011;10471;42.736;23.346;2022-07-25T03:29:34;20.07;;;16.73;;
20623;SDS011;10471;42.736;23.346;2022-07-25T03:32:00;18.43;;;16.53;;
20623;SDS011;10471;42.736;23.346;2022-07-25T03:34:25;19.73;;;16.67;;
20623;SDS011;10471;42.736;23.346;2022-07-25T03:36:51;18.53;;;16.57;;
20623;SDS011;10471;42.736;23.346;2022-07-25T03:39:16;18.37;;;16.40;;
20623;SDS011;10471;42.736;23.346;2022-07-25T03:41:42;19.67;;;17.63;;
20623;SDS011;10471;42.736;23.346;2022-07-25T03:44:08;23.87;;;17.97;;
20623;SDS011;10471;42.736;23.346;2022-07-25T03:46:33;22.80;;;18.73;;
20623;SDS011;10471;42.736;23.346;2022-07-25T03:48:58;26.57;;;19.80;;
20623;SDS011;10471;42.736;23.346;2022-07-25T03:51:24;23.70;;;19.33;;
20623;SDS011;10471;42.736;23.346;2022-07-25T03:53:49;27.50;;;18.67;;
20623;SDS011;10471;42.736;23.346;2022-07-25T03:59:14;19.73;;;15.67;;
20623;SDS011;10471;42.736;23.346;2022-07-25T04:01:42;20.47;;;17.73;;
20623;SDS011;10471;42.736;23.346;2022-07-25T04:04:09;17.73;;;15.30;;
20623;SDS011;10471;42.736;23.346;2022-07-25T04:06:35;19.80;;;16.63;;
20623;SDS011;10471;42.736;23.346;2022-07-25T04:09:01;25.33;;;17.60;;
20623;SDS011;10471;42.736;23.346;2022-07-25T04:11:28;28.63;;;17.13;;
20623;SDS011;10471;42.736;23.346;2022-07-25T04:13:55;24.70;;;16.57;;
20623;SDS011;10471;42.736;23.346;2022-07-25T04:16:21;17.33;;;15.53;;
20623;SDS011;10471;42.736;23.346;2022-07-25T04:18:47;23.27;;;18.30;;
20623;SDS011;10471;42.736;23.346;2022-07-25T04:21:12;20.83;;;16.57;;
20623;SDS011;10471;42.736;23.346;2022-07-25T04:23:38;24.17;;;16.80;;
20623;SDS011;10471;42.736;23.346;2022-07-25T04:26:03;26.57;;;17.50;;
20623;SDS011;10471;42.736;23.346;2022-07-25T04:28:29;23.40;;;17.17;;
20623;SDS011;10471;42.736;23.346;2022-07-25T04:30:55;21.07;;;16.27;;
20623;SDS011;10471;42.736;23.346;2022-07-25T04:33:20;20.60;;;16.57;;
20623;SDS011;10471;42.736;23.346;2022-07-25T04:35:46;21.40;;;17.30;;
20623;SDS011;10471;42.736;23.346;2022-07-25T04:38:12;22.90;;;17.23;;
20623;SDS011;10471;42.736;23.346;2022-07-25T04:40:37;20.87;;;16.87;;
20623;SDS011;10471;42.736;23.346;2022-07-25T04:43:03;19.67;;;17.03;;
20623;SDS011;10471;42.736;23.346;2022-07-25T04:45:29;20.47;;;16.43;;
20623;SDS011;10471;42.736;23.346;2022-07-25T04:47:55;20.37;;;16.33;;
20623;SDS011;10471;42.736;23.346;2022-07-25T04:50:21;20.83;;;15.13;;
20623;SDS011;10471;42.736;23.346;2022-07-25T04:52:46;17.17;;;14.13;;
20623;SDS011;10471;42.736;23.346;2022-07-25T04:55:12;19.77;;;14.13;;
20623;SDS011;10471;42.736;23.346;2022-07-25T04:57:38;17.00;;;15.13;;
20623;SDS011;10471;42.736;23.346;2022-07-25T05:00:04;18.07;;;15.27;;
20623;SDS011;10471;42.736;23.346;2022-07-25T05:02:31;17.23;;;14.50;;
20623;SDS011;10471;42.736;23.346;2022-07-25T05:04:57;18.23;;;14.60;;
20623;SDS011;10471;42.736;23.346;2022-07-25T05:07:22;27.10;;;16.50;;
20623;SDS011;10471;42.736;23.346;2022-07-25T05:09:48;16.83;;;15.00;;
20623;SDS011;10471;42.736;23.346;2022-07-25T05:12:13;19.93;;;15.67;;
20623;SDS011;10471;42.736;23.346;2022-07-25T05:14:38;24.03;;;15.77;;
20623;SDS011;10471;42.736;23.346;2022-07-25T05:17:04;24.80;;;15.43;;
20623;SDS011;10471;42.736;23.346;2022-07-25T05:19:29;20.00;;;14.57;;
20623;SDS011;10471;42.736;23.346;2022-07-25T05:21:55;22.30;;;14.87;;
20623;SDS011;10471;42.736;23.346;2022-07-25T05:24:21;18.90;;;14.87;;
20623;SDS011;10471;42.736;23.346;2022-07-25T05:26:47;17.30;;;14.07;;
20623;SDS011;10471;42.736;23.346;2022-07-25T05:29:13;18.97;;;13.90;;
20623;SDS011;10471;42.736;23.346;2022-07-25T05:31:39;18.50;;;14.47;;
20623;SDS011;10471;42.736;23.346;2022-07-25T05:34:04;16.67;;;14.13;;
20623;SDS011;10471;42.736;23.346;2022-07-25T05:36:29;16.20;;;13.70;;
20623;SDS011;10471;42.736;23.346;2022-07-25T05:38:55;15.60;;;13.33;;
20623;SDS011;10471;42.736;23.346;2022-07-25T05:41:20;19.03;;;14.53;;
20623;SDS011;10471;42.736;23.346;2022-07-25T05:43:46;18.57;;;13.37;;
20623;SDS011;10471;42.736;23.346;2022-07-25T05:46:12;16.97;;;12.97;;
20623;SDS011;10471;42.736;23.346;2022-07-25T05:48:38;17.60;;;13.20;;
20623;SDS011;10471;42.736;23.346;2022-07-25T05:51:03;17.77;;;13.03;;
20623;SDS011;10471;42.736;23.346;2022-07-25T05:53:29;16.23;;;12.43;;
20623;SDS011;10471;42.736;23.346;2022-07-25T05:55:54;16.93;;;12.97;;
20623;SDS011;10471;42.736;23.346;2022-07-25T05:58:20;18.47;;;12.73;;
20623;SDS011;10471;42.736;23.346;2022-07-25T06:00:45;15.00;;;12.83;;
20623;SDS011;10471;42.736;23.346;2022-07-25T06:03:11;16.60;;;12.83;;
20623;SDS011;10471;42.736;23.346;2022-07-25T06:05:36;18.97;;;12.77;;
20623;SDS011;10471;42.736;23.346;2022-07-25T06:08:01;16.67;;;12.77;;
20623;SDS011;10471;42.736;23.346;2022-07-25T06:10:27;17.30;;;12.50;;
20623;SDS011;10471;42.736;23.346;2022-07-25T06:12:52;13.43;;;11.50;;
20623;SDS011;10471;42.736;23.346;2022-07-25T06:15:18;13.43;;;11.80;;
20623;SDS011;10471;42.736;23.346;2022-07-25T06:17:44;14.43;;;11.40;;
20623;SDS011;10471;42.736;23.346;2022-07-25T06:20:10;13.63;;;10.87;;
20623;SDS011;10471;42.736;23.346;2022-07-25T06:22:36;12.73;;;11.47;;
20623;SDS011;10471;42.736;23.346;2022-07-25T06:25:02;13.80;;;12.10;;
20623;SDS011;10471;42.736;23.346;2022-07-25T06:27:28;14.30;;;11.87;;
20623;SDS011;10471;42.736;23.346;2022-07-25T06:29:53;14.87;;;11.10;;
20623;SDS011;10471;42.736;23.346;2022-07-25T06:32:19;14.23;;;11.40;;
20623;SDS011;10471;42.736;23.346;2022-07-25T06:34:44;19.53;;;11.60;;
20623;SDS011;10471;42.736;23.346;2022-07-25T06:37:09;15.00;;;12.23;;
20623;SDS011;10471;42.736;23.346;2022-07-25T06:39:35;14.17;;;11.80;;
20623;SDS011;10471;42.736;23.346;2022-07-25T06:42:00;13.70;;;11.00;;
20623;SDS011;10471;42.736;23.346;2022-07-25T06:44:30;15.60;;;11.67;;
20623;SDS011;10471;42.736;23.346;2022-07-25T06:46:56;15.57;;;11.40;;
20623;SDS011;10471;42.736;23.346;2022-07-25T06:49:22;13.97;;;11.53;;
20623;SDS011;10471;42.736;23.346;2022-07-25T06:51:47;16.43;;;11.10;;
20623;SDS011;10471;42.736;23.346;2022-07-25T06:54:13;14.40;;;10.93;;
20623;SDS011;10471;42.736;23.346;2022-07-25T06:56:39;17.10;;;10.80;;
20623;SDS011;10471;42.736;23.346;2022-07-25T06:59:05;11.93;;;10.67;;
20623;SDS011;10471;42.736;23.346;2022-07-25T07:01:30;14.70;;;10.40;;
20623;SDS011;10471;42.736;23.346;2022-07-25T07:03:55;17.60;;;10.40;;
20623;SDS011;10471;42.736;23.346;2022-07-25T07:06:21;11.73;;;10.53;;
20623;SDS011;10471;42.736;23.346;2022-07-25T07:08:46;13.40;;;10.60;;
20623;SDS011;10471;42.736;23.346;2022-07-25T07:11:12;12.67;;;10.83;;
20623;SDS011;10471;42.736;23.346;2022-07-25T07:13:39;16.47;;;11.43;;
20623;SDS011;10471;42.736;23.346;2022-07-25T07:16:04;16.17;;;10.77;;
20623;SDS011;10471;42.736;23.346;2022-07-25T07:18:30;15.20;;;10.97;;
20623;SDS011;10471;42.736;23.346;2022-07-25T07:20:55;15.17;;;10.33;;
20623;SDS011;10471;42.736;23.346;2022-07-25T07:23:21;12.17;;;10.33;;
20623;SDS011;10471;42.736;23.346;2022-07-25T07:25:46;12.73;;;11.00;;
20623;SDS011;10471;42.736;23.346;2022-07-25T07:28:12;12.03;;;10.37;;
20623;SDS011;10471;42.736;23.346;2022-07-25T07:30:38;15.37;;;11.90;;
20623;SDS011;10471;42.736;23.346;2022-07-25T07:33:03;12.60;;;11.30;;
20623;SDS011;10471;42.736;23.346;2022-07-25T07:35:29;13.90;;;10.43;;
20623;SDS011;10471;42.736;23.346;2022-07-25T07:37:54;11.77;;;10.67;;
20623;SDS011;10471;42.736;23.346;2022-07-25T07:40:20;13.17;;;10.50;;
20623;SDS011;10471;42.736;23.346;2022-07-25T07:42:46;14.17;;;10.30;;
20623;SDS011;10471;42.736;23.346;2022-07-25T07:45:13;11.80;;;10.53;;
20623;SDS011;10471;42.736;23.346;2022-07-25T07:47:44;11.70;;;10.60;;
20623;SDS011;10471;42.736;23.346;2022-07-25T07:50:12;13.80;;;11.20;;
20623;SDS011;10471;42.736;23.346;2022-07-25T07:52:42;12.60;;;11.27;;
20623;SDS011;10471;42.736;23.346;2022-07-25T07:55:08;13.43;;;10.90;;
20623;SDS011;10471;42.736;23.346;2022-07-25T07:57:52;12.60;;;10.60;;
20623;SDS011;10471;42.736;23.346;2022-07-25T08:00:18;12.00;;;10.27;;
20623;SDS011;10471;42.736;23.346;2022-07-25T08:02:48;12.73;;;10.47;;
20623;SDS011;10471;42.736;23.346;2022-07-25T08:05:35;11.93;;;10.73;;
20623;SDS011;10471;42.736;23.346;2022-07-25T08:08:03;11.67;;;10.47;;
20623;SDS011;10471;42.736;23.346;2022-07-25T08:10:30;11.53;;;10.33;;
20623;SDS011;10471;42.736;23.346;2022-07-25T08:12:57;16.97;;;10.43;;
20623;SDS011;10471;42.736;23.346;2022-07-25T08:15:24;11.67;;;10.30;;
20623;SDS011;10471;42.736;23.346;2022-07-25T08:17:50;11.60;;;10.50;;
20623;SDS011;10471;42.736;23.346;2022-07-25T08:20:16;11.97;;;10.47;;
20623;SDS011;10471;42.736;23.346;2022-07-25T08:22:43;12.07;;;10.87;;
20623;SDS011;10471;42.736;23.346;2022-07-25T08:25:15;11.77;;;9.83;;
20623;SDS011;10471;42.736;23.346;2022-07-25T08:27:44;15.30;;;10.80;;
20623;SDS011;10471;42.736;23.346;2022-07-25T08:30:11;11.13;;;10.03;;
20623;SDS011;10471;42.736;23.346;2022-07-25T08:32:54;13.57;;;10.77;;
20623;SDS011;10471;42.736;23.346;2022-07-25T08:35:22;12.63;;;10.83;;
20623;SDS011;10471;42.736;23.346;2022-07-25T08:37:48;12.07;;;9.90;;
20623;SDS011;10471;42.736;23.346;2022-07-25T08:40:15;11.10;;;9.90;;
20623;SDS011;10471;42.736;23.346;2022-07-25T08:42:42;13.53;;;9.97;;
20623;SDS011;10471;42.736;23.346;2022-07-25T08:45:08;11.97;;;9.83;;
20623;SDS011;10471;42.736;23.346;2022-07-25T08:47:37;11.63;;;10.10;;
20623;SDS011;10471;42.736;23.346;2022-07-25T08:50:05;11.03;;;9.90;;
20623;SDS011;10471;42.736;23.346;2022-07-25T08:52:32;13.07;;;10.33;;
20623;SDS011;10471;42.736;23.346;2022-07-25T08:55:03;12.07;;;9.90;;
20623;SDS011;10471;42.736;23.346;2022-07-25T08:57:34;10.90;;;9.87;;
20623;SDS011;10471;42.736;23.346;2022-07-25T09:00:01;10.70;;;9.70;;
20623;SDS011;10471;42.736;23.346;2022-07-25T09:02:28;11.93;;;10.47;;
20623;SDS011;10471;42.736;23.346;2022-07-25T09:04:54;12.67;;;10.40;;
20623;SDS011;10471;42.736;23.346;2022-07-25T09:09:55;11.83;;;9.50;;
20623;SDS011;10471;42.736;23.346;2022-07-25T09:12:24;10.87;;;9.77;;
20623;SDS011;10471;42.736;23.346;2022-07-25T09:14:52;11.03;;;9.83;;
20623;SDS011;10471;42.736;23.346;2022-07-25T09:17:18;12.80;;;9.80;;
20623;SDS011;10471;42.736;23.346;2022-07-25T09:19:53;10.30;;;9.30;;
20623;SDS011;10471;42.736;23.346;2022-07-25T09:22:19;11.00;;;9.60;;
20623;SDS011;10471;42.736;23.346;2022-07-25T09:24:45;11.10;;;9.40;;
20623;SDS011;10471;42.736;23.346;2022-07-25T09:27:10;9.77;;;8.77;;
20623;SDS011;10471;42.736;23.346;2022-07-25T09:29:37;9.27;;;8.13;;
20623;SDS011;10471;42.736;23.346;2022-07-25T09:32:14;9.93;;;8.93;;
20623;SDS011;10471;42.736;23.346;2022-07-25T09:34:45;10.43;;;9.33;;
20623;SDS011;10471;42.736;23.346;2022-07-25T09:37:13;10.10;;;9.13;;
20623;SDS011;10471;42.736;23.346;2022-07-25T09:39:48;10.37;;;9.07;;
20623;SDS011;10471;42.736;23.346;2022-07-25T09:44:43;9.13;;;8.30;;
20623;SDS011;10471;42.736;23.346;2022-07-25T09:47:10;11.87;;;9.13;;
20623;SDS011;10471;42.736;23.346;2022-07-25T09:49:40;9.73;;;8.83;;
20623;SDS011;10471;42.736;23.346;2022-07-25T09:52:06;10.00;;;8.57;;
20623;SDS011;10471;42.736;23.346;2022-07-25T09:54:33;9.17;;;8.30;;
20623;SDS011;10471;42.736;23.346;2022-07-25T09:56:58;9.30;;;8.33;;
20623;SDS011;10471;42.736;23.346;2022-07-25T09:59:24;9.75;;;8.40;;
20623;SDS011;10471;42.736;23.346;2022-07-25T10:02:11;11.32;;;8.38;;
20623;SDS011;10471;42.736;23.346;2022-07-25T10:07:19;9.97;;;9.07;;
20623;SDS011;10471;42.736;23.346;2022-07-25T10:09:47;10.27;;;8.98;;
20623;SDS011;10471;42.736;23.346;2022-07-25T10:12:18;9.80;;;8.83;;
20623;SDS011;10471;42.736;23.346;2022-07-25T10:17:35;9.87;;;8.87;;
20623;SDS011;10471;42.736;23.346;2022-07-25T10:20:02;9.20;;;8.30;;
20623;SDS011;10471;42.736;23.346;2022-07-25T10:22:43;9.13;;;8.10;;
20623;SDS011;10471;42.736;23.346;2022-07-25T10:25:16;10.57;;;8.65;;
20623;SDS011;10471;42.736;23.346;2022-07-25T10:27:47;8.10;;;7.30;;
20623;SDS011;10471;42.736;23.346;2022-07-25T10:30:18;10.43;;;7.35;;
20623;SDS011;10471;42.736;23.346;2022-07-25T10:33:39;8.63;;;7.70;;
20623;SDS011;10471;42.736;23.346;2022-07-25T10:35:41;8.93;;;8.00;;
20623;SDS011;10471;42.736;23.346;2022-07-25T10:38:07;8.80;;;7.90;;
20623;SDS011;10471;42.736;23.346;2022-07-25T10:40:51;10.80;;;7.38;;
20623;SDS011;10471;42.736;23.346;2022-07-25T10:43:17;9.60;;;7.75;;
20623;SDS011;10471;42.736;23.346;2022-07-25T10:48:25;8.68;;;7.75;;
20623;SDS011;10471;42.736;23.346;2022-07-25T10:51:05;8.27;;;7.47;;
20623;SDS011;10471;42.736;23.346;2022-07-25T10:56:14;8.20;;;7.43;;
20623;SDS011;10471;42.736;23.346;2022-07-25T11:01:24;7.78;;;7.07;;
20623;SDS011;10471;42.736;23.346;2022-07-25T11:03:52;7.95;;;7.25;;
20623;SDS011;10471;42.736;23.346;2022-07-25T11:08:56;8.40;;;7.60;;
20623;SDS011;10471;42.736;23.346;2022-07-25T11:14:04;8.57;;;7.78;;
20623;SDS011;10471;42.736;23.346;2022-07-25T11:16:38;10.18;;;7.55;;
20623;SDS011;10471;42.736;23.346;2022-07-25T11:19:03;8.60;;;6.97;;
20623;SDS011;10471;42.736;23.346;2022-07-25T11:21:43;8.75;;;7.85;;
20623;SDS011;10471;42.736;23.346;2022-07-25T11:24:13;10.93;;;6.90;;
20623;SDS011;10471;42.736;23.346;2022-07-25T11:26:45;7.70;;;6.97;;
20623;SDS011;10471;42.736;23.346;2022-07-25T11:29:22;7.63;;;6.90;;
20623;SDS011;10471;42.736;23.346;2022-07-25T11:31:57;8.88;;;7.38;;
20623;SDS011;10471;42.736;23.346;2022-07-25T11:34:31;8.10;;;7.30;;
20623;SDS011;10471;42.736;23.346;2022-07-25T11:36:59;7.30;;;6.63;;
20623;SDS011;10471;42.736;23.346;2022-07-25T11:39:27;10.10;;;7.85;;
20623;SDS011;10471;42.736;23.346;2022-07-25T11:44:30;8.38;;;7.47;;
20623;SDS011;10471;42.736;23.346;2022-07-25T11:47:06;9.18;;;7.07;;
20623;SDS011;10471;42.736;23.346;2022-07-25T11:49:44;8.23;;;7.53;;
20623;SDS011;10471;42.736;23.346;2022-07-25T11:52:44;8.25;;;7.00;;
20623;SDS011;10471;42.736;23.346;2022-07-25T11:55:07;10.07;;;7.85;;
20623;SDS011;10471;42.736;23.346;2022-07-25T11:57:41;9.05;;;8.05;;
20623;SDS011;10471;42.736;23.346;2022-07-25T12:02:40;8.45;;;7.68;;
20623;SDS011;10471;42.736;23.346;2022-07-25T12:05:07;10.30;;;7.63;;
20623;SDS011;10471;42.736;23.346;2022-07-25T12:07:38;8.25;;;7.55;;
20623;SDS011;10471;42.736;23.346;2022-07-25T12:10:30;8.45;;;7.65;;
20623;SDS011;10471;42.736;23.346;2022-07-25T12:12:57;7.90;;;7.13;;
20623;SDS011;10471;42.736;23.346;2022-07-25T12:15:24;8.50;;;7.28;;
20623;SDS011;10471;42.736;23.346;2022-07-25T12:17:52;9.07;;;7.30;;
20623;SDS011;10471;42.736;23.346;2022-07-25T12:20:22;7.78;;;7.03;;
20623;SDS011;10471;42.736;23.346;2022-07-25T12:22:51;7.82;;;7.13;;
20623;SDS011;10471;42.736;23.346;2022-07-25T12:25:18;7.88;;;7.18;;
20623;SDS011;10471;42.736;23.346;2022-07-25T12:27:44;7.53;;;6.85;;
20623;SDS011;10471;42.736;23.346;2022-07-25T12:30:10;7.20;;;6.60;;
20623;SDS011;10471;42.736;23.346;2022-07-25T12:32:36;8.73;;;7.22;;
20623;SDS011;10471;42.736;23.346;2022-07-25T12:35:05;7.25;;;6.60;;
20623;SDS011;10471;42.736;23.346;2022-07-25T12:37:32;7.13;;;6.53;;
20623;SDS011;10471;42.736;23.346;2022-07-25T12:39:59;7.72;;;6.82;;
20623;SDS011;10471;42.736;23.346;2022-07-25T12:42:24;7.70;;;6.90;;
20623;SDS011;10471;42.736;23.346;2022-07-25T12:44:52;7.50;;;6.80;;
20623;SDS011;10471;42.736;23.346;2022-07-25T12:47:19;7.22;;;6.63;;
20623;SDS011;10471;42.736;23.346;2022-07-25T12:49:45;7.00;;;6.35;;
20623;SDS011;10471;42.736;23.346;2022-07-25T12:52:10;9.85;;;6.95;;
20623;SDS011;10471;42.736;23.346;2022-07-25T12:54:35;7.78;;;7.03;;
20623;SDS011;10471;42.736;23.346;2022-07-25T12:57:01;7.20;;;6.60;;
20623;SDS011;10471;42.736;23.346;2022-07-25T12:59:26;7.43;;;6.72;;
20623;SDS011;10471;42.736;23.346;2022-07-25T13:01:52;7.72;;;6.82;;
20623;SDS011;10471;42.736;23.346;2022-07-25T13:04:17;8.10;;;7.05;;
20623;SDS011;10471;42.736;23.346;2022-07-25T13:06:42;7.68;;;6.97;;
20623;SDS011;10471;42.736;23.346;2022-07-25T13:09:08;7.63;;;6.93;;
20623;SDS011;10471;42.736;23.346;2022-07-25T13:11:33;7.38;;;6.60;;
20623;SDS011;10471;42.736;23.346;2022-07-25T13:13:59;7.40;;;6.70;;
20623;SDS011;10471;42.736;23.346;2022-07-25T13:16:24;7.50;;;6.80;;
20623;SDS011;10471;42.736;23.346;2022-07-25T13:18:50;8.02;;;7.03;;
20623;SDS011;10471;42.736;23.346;2022-07-25T13:21:16;7.55;;;6.95;;
20623;SDS011;10471;42.736;23.346;2022-07-25T13:23:42;7.57;;;6.95;;
20623;SDS011;10471;42.736;23.346;2022-07-25T13:26:08;8.48;;;6.70;;
20623;SDS011;10471;42.736;23.346;2022-07-25T13:28:34;8.10;;;6.57;;
20623;SDS011;10471;42.736;23.346;2022-07-25T13:30:59;7.05;;;6.20;;
20623;SDS011;10471;42.736;23.346;2022-07-25T13:33:31;7.05;;;6.45;;
20623;SDS011;10471;42.736;23.346;2022-07-25T13:35:57;6.95;;;6.25;;
20623;SDS011;10471;42.736;23.346;2022-07-25T13:38:22;7.45;;;6.60;;
20623;SDS011;10471;42.736;23.346;2022-07-25T13:40:47;7.22;;;6.45;;
20623;SDS011;10471;42.736;23.346;2022-07-25T13:43:13;7.07;;;6.45;;
20623;SDS011;10471;42.736;23.346;2022-07-25T13:45:39;8.00;;;7.20;;
20623;SDS011;10471;42.736;23.346;2022-07-25T13:48:06;7.68;;;6.68;;
20623;SDS011;10471;42.736;23.346;2022-07-25T13:50:32;7.07;;;6.47;;
20623;SDS011;10471;42.736;23.346;2022-07-25T13:52:58;7.22;;;6.53;;
20623;SDS011;10471;42.736;23.346;2022-07-25T13:55:27;6.85;;;6.13;;
20623;SDS011;10471;42.736;23.346;2022-07-25T13:57:53;8.10;;;6.40;;
20623;SDS011;10471;42.736;23.346;2022-07-25T14:00:19;7.43;;;6.55;;
20623;SDS011;10471;42.736;23.346;2022-07-25T14:02:45;6.65;;;6.10;;
20623;SDS011;10471;42.736;23.346;2022-07-25T14:05:10;7.78;;;6.97;;
20623;SDS011;10471;42.736;23.346;2022-07-25T14:07:36;7.10;;;6.50;;
20623;SDS011;10471;42.736;23.346;2022-07-25T14:10:02;7.38;;;6.60;;
20623;SDS011;10471;42.736;23.346;2022-07-25T14:12:29;7.47;;;6.57;;
20623;SDS011;10471;42.736;23.346;2022-07-25T14:14:55;7.80;;;7.00;;
20623;SDS011;10471;42.736;23.346;2022-07-25T14:17:21;7.82;;;6.50;;
20623;SDS011;10471;42.736;23.346;2022-07-25T14:19:46;7.57;;;6.85;;
20623;SDS011;10471;42.736;23.346;2022-07-25T14:22:11;7.03;;;6.32;;
20623;SDS011;10471;42.736;23.346;2022-07-25T14:24:37;7.05;;;6.32;;
20623;SDS011;10471;42.736;23.346;2022-07-25T14:27:03;6.95;;;5.80;;
20623;SDS011;10471;42.736;23.346;2022-07-25T14:29:28;7.15;;;6.47;;
20623;SDS011;10471;42.736;23.346;2022-07-25T14:31:54;7.43;;;6.75;;
20623;SDS011;10471;42.736;23.346;2022-07-25T14:34:20;7.80;;;7.03;;
20623;SDS011;10471;42.736;23.346;2022-07-25T14:36:45;7.68;;;6.93;;
20623;SDS011;10471;42.736;23.346;2022-07-25T14:39:12;9.35;;;7.22;;
20623;SDS011;10471;42.736;23.346;2022-07-25T14:41:38;8.50;;;6.95;;
20623;SDS011;10471;42.736;23.346;2022-07-25T14:44:04;9.40;;;8.20;;
20623;SDS011;10471;42.736;23.346;2022-07-25T14:46:30;9.48;;;8.48;;
20623;SDS011;10471;42.736;23.346;2022-07-25T14:48:56;8.77;;;7.97;;